Terminal Aerodrome Forecast
Issued by NWS Cleveland, OH

Home | Current Version | Previous Version | Graphics & Text | Print | Product List | Glossary On
Versions: 1 2 3 4 5 6 7 8 9 10 11 12 13 14 15 16 17
000
FTUS41 KCLE 212300
TAFYNG
TAF
KYNG 212329Z 2200/2224 28008KT P6SM SCT050 BKN090
     FM220200 25005KT P6SM FEW050 SCT090
     FM221100 27008KT P6SM VCSH BKN050 OVC090
     FM221300 32010KT P6SM BKN090
     FM221700 32012G20KT P6SM SCT040=

USA.gov is the U.S. government's official web portal to all federal, state and local government web resources and services.